• 1
  • 1

WebCam

  
Kamera Halle
Kamera Vorfeld



AeroClub Göppingen-Salach e.V.
Ausrichter der Modellflug
GPS Triangle-WM 2021

 

Wetter EDDS

METAR

EDDS 171550Z 04002KT 0400 R25/1400VP2000U SN FZFG FEW002 BKN005 M00/M00 Q1019 R25/29//94 BECMG 2500 NSW =
AMD EDDS 171542Z 1715/1812 VRB03KT 4000 BR SCT004 BKN015 TEMPO 1715/1808 2000 -SN BR SCT002 BKN005 PROB40 TEMPO 1715/1808 0400 FG FZFG BKN002 BECMG 1718/1721 26006KT


TAF

AMD EDDS 171542Z 1715/1812 VRB03KT 4000 BR SCT004 BKN015 TEMPO 1715/1808 2000 -SN BR SCT002 BKN005 PROB40 TEMPO 1715/1808 0400 FG FZFG BKN002 BECMG 1718/1721 26006KT =


SR/SS

07:06 / 15:56 UTC
(EDSO 17-01-2021)